sensor_id;sensor_type;location;lat;lon;timestamp;P1;durP1;ratioP1;P2;durP2;ratioP2
25663;SDS011;13522;50.018;20.014;2022-11-20T00:02:15;92.20;;;52.10;;
25663;SDS011;13522;50.018;20.014;2022-11-20T00:05:27;100.63;;;54.30;;
25663;SDS011;13522;50.018;20.014;2022-11-20T00:08:41;91.15;;;51.15;;
25663;SDS011;13522;50.018;20.014;2022-11-20T00:11:54;96.55;;;52.50;;
25663;SDS011;13522;50.018;20.014;2022-11-20T00:15:08;98.10;;;53.63;;
25663;SDS011;13522;50.018;20.014;2022-11-20T00:18:20;104.05;;;54.50;;
25663;SDS011;13522;50.018;20.014;2022-11-20T00:21:32;101.95;;;54.63;;
25663;SDS011;13522;50.018;20.014;2022-11-20T00:24:44;100.88;;;53.15;;
25663;SDS011;13522;50.018;20.014;2022-11-20T00:27:56;110.20;;;57.28;;
25663;SDS011;13522;50.018;20.014;2022-11-20T00:31:08;117.93;;;57.60;;
25663;SDS011;13522;50.018;20.014;2022-11-20T00:34:22;109.38;;;55.65;;
25663;SDS011;13522;50.018;20.014;2022-11-20T00:37:34;99.53;;;53.73;;
25663;SDS011;13522;50.018;20.014;2022-11-20T00:40:45;98.73;;;52.30;;
25663;SDS011;13522;50.018;20.014;2022-11-20T00:44:06;91.93;;;50.85;;
25663;SDS011;13522;50.018;20.014;2022-11-20T00:47:18;95.73;;;51.55;;
25663;SDS011;13522;50.018;20.014;2022-11-20T00:50:29;90.03;;;50.03;;
25663;SDS011;13522;50.018;20.014;2022-11-20T00:53:41;104.43;;;53.13;;
25663;SDS011;13522;50.018;20.014;2022-11-20T00:56:54;96.20;;;52.30;;
25663;SDS011;13522;50.018;20.014;2022-11-20T01:00:07;93.08;;;52.73;;
25663;SDS011;13522;50.018;20.014;2022-11-20T01:03:21;101.88;;;53.15;;
25663;SDS011;13522;50.018;20.014;2022-11-20T01:06:33;89.00;;;51.00;;
25663;SDS011;13522;50.018;20.014;2022-11-20T01:09:47;94.98;;;50.33;;
25663;SDS011;13522;50.018;20.014;2022-11-20T01:12:58;88.88;;;48.68;;
25663;SDS011;13522;50.018;20.014;2022-11-20T01:16:27;94.93;;;49.20;;
25663;SDS011;13522;50.018;20.014;2022-11-20T01:19:42;92.40;;;51.73;;
25663;SDS011;13522;50.018;20.014;2022-11-20T01:22:54;94.08;;;52.08;;
25663;SDS011;13522;50.018;20.014;2022-11-20T01:26:06;91.93;;;50.20;;
25663;SDS011;13522;50.018;20.014;2022-11-20T01:29:22;99.73;;;53.75;;
25663;SDS011;13522;50.018;20.014;2022-11-20T01:32:34;97.15;;;53.80;;
25663;SDS011;13522;50.018;20.014;2022-11-20T01:35:46;90.65;;;51.15;;
25663;SDS011;13522;50.018;20.014;2022-11-20T01:38:59;90.88;;;50.60;;
25663;SDS011;13522;50.018;20.014;2022-11-20T01:42:13;93.53;;;51.78;;
25663;SDS011;13522;50.018;20.014;2022-11-20T01:45:50;84.83;;;49.98;;
25663;SDS011;13522;50.018;20.014;2022-11-20T01:49:23;89.28;;;49.70;;
25663;SDS011;13522;50.018;20.014;2022-11-20T01:52:41;92.95;;;49.93;;
25663;SDS011;13522;50.018;20.014;2022-11-20T01:55:56;88.03;;;50.68;;
25663;SDS011;13522;50.018;20.014;2022-11-20T01:59:12;91.05;;;49.13;;
25663;SDS011;13522;50.018;20.014;2022-11-20T02:02:27;97.38;;;51.80;;
25663;SDS011;13522;50.018;20.014;2022-11-20T02:05:40;94.95;;;51.40;;
25663;SDS011;13522;50.018;20.014;2022-11-20T02:08:56;87.03;;;48.65;;
25663;SDS011;13522;50.018;20.014;2022-11-20T02:12:07;92.00;;;49.80;;
25663;SDS011;13522;50.018;20.014;2022-11-20T02:15:22;91.85;;;49.70;;
25663;SDS011;13522;50.018;20.014;2022-11-20T02:18:34;88.90;;;50.10;;
25663;SDS011;13522;50.018;20.014;2022-11-20T02:21:47;88.40;;;47.33;;
25663;SDS011;13522;50.018;20.014;2022-11-20T02:25:05;91.88;;;50.53;;
25663;SDS011;13522;50.018;20.014;2022-11-20T02:28:19;87.63;;;48.25;;
25663;SDS011;13522;50.018;20.014;2022-11-20T02:31:36;90.38;;;47.55;;
25663;SDS011;13522;50.018;20.014;2022-11-20T02:34:50;91.18;;;50.70;;
25663;SDS011;13522;50.018;20.014;2022-11-20T02:38:03;88.38;;;49.28;;
25663;SDS011;13522;50.018;20.014;2022-11-20T02:41:14;97.08;;;53.95;;
25663;SDS011;13522;50.018;20.014;2022-11-20T02:44:27;103.33;;;56.68;;
25663;SDS011;13522;50.018;20.014;2022-11-20T02:47:39;97.20;;;54.95;;
25663;SDS011;13522;50.018;20.014;2022-11-20T02:50:51;94.45;;;52.08;;
25663;SDS011;13522;50.018;20.014;2022-11-20T02:54:03;99.60;;;52.73;;
25663;SDS011;13522;50.018;20.014;2022-11-20T02:57:15;95.22;;;51.45;;
25663;SDS011;13522;50.018;20.014;2022-11-20T03:00:27;90.73;;;50.10;;
25663;SDS011;13522;50.018;20.014;2022-11-20T03:03:40;86.78;;;49.70;;
25663;SDS011;13522;50.018;20.014;2022-11-20T03:06:52;96.13;;;51.83;;
25663;SDS011;13522;50.018;20.014;2022-11-20T03:10:05;95.83;;;52.38;;
25663;SDS011;13522;50.018;20.014;2022-11-20T03:13:19;92.58;;;52.75;;
25663;SDS011;13522;50.018;20.014;2022-11-20T03:16:31;99.73;;;54.33;;
25663;SDS011;13522;50.018;20.014;2022-11-20T03:19:50;101.70;;;55.43;;
25663;SDS011;13522;50.018;20.014;2022-11-20T03:23:02;102.60;;;56.60;;
25663;SDS011;13522;50.018;20.014;2022-11-20T03:26:15;99.55;;;55.30;;
25663;SDS011;13522;50.018;20.014;2022-11-20T03:29:29;105.10;;;54.90;;
25663;SDS011;13522;50.018;20.014;2022-11-20T03:32:41;93.63;;;51.55;;
25663;SDS011;13522;50.018;20.014;2022-11-20T03:35:52;95.92;;;51.20;;
25663;SDS011;13522;50.018;20.014;2022-11-20T03:39:04;96.43;;;52.45;;
25663;SDS011;13522;50.018;20.014;2022-11-20T03:42:22;93.13;;;51.28;;
25663;SDS011;13522;50.018;20.014;2022-11-20T03:45:49;71.65;;;40.50;;
25663;SDS011;13522;50.018;20.014;2022-11-20T03:49:03;85.18;;;47.93;;
25663;SDS011;13522;50.018;20.014;2022-11-20T03:52:15;90.25;;;48.93;;
25663;SDS011;13522;50.018;20.014;2022-11-20T03:55:36;90.00;;;49.73;;
25663;SDS011;13522;50.018;20.014;2022-11-20T03:58:47;90.63;;;48.80;;
25663;SDS011;13522;50.018;20.014;2022-11-20T04:02:01;94.70;;;52.53;;
25663;SDS011;13522;50.018;20.014;2022-11-20T04:05:13;99.60;;;54.13;;
25663;SDS011;13522;50.018;20.014;2022-11-20T04:08:25;94.43;;;53.13;;
25663;SDS011;13522;50.018;20.014;2022-11-20T04:11:39;96.10;;;54.23;;
25663;SDS011;13522;50.018;20.014;2022-11-20T04:14:51;98.08;;;52.25;;
25663;SDS011;13522;50.018;20.014;2022-11-20T04:18:03;99.15;;;52.18;;
25663;SDS011;13522;50.018;20.014;2022-11-20T04:21:15;114.43;;;59.25;;
25663;SDS011;13522;50.018;20.014;2022-11-20T04:24:27;103.65;;;54.90;;
25663;SDS011;13522;50.018;20.014;2022-11-20T04:27:39;101.78;;;53.75;;
25663;SDS011;13522;50.018;20.014;2022-11-20T04:30:51;96.78;;;51.78;;
25663;SDS011;13522;50.018;20.014;2022-11-20T04:34:03;102.15;;;55.20;;
25663;SDS011;13522;50.018;20.014;2022-11-20T04:37:19;112.45;;;58.78;;
25663;SDS011;13522;50.018;20.014;2022-11-20T04:40:30;116.85;;;59.23;;
25663;SDS011;13522;50.018;20.014;2022-11-20T04:43:45;109.95;;;57.23;;
25663;SDS011;13522;50.018;20.014;2022-11-20T04:47:00;113.10;;;58.50;;
25663;SDS011;13522;50.018;20.014;2022-11-20T04:50:12;114.90;;;57.18;;
25663;SDS011;13522;50.018;20.014;2022-11-20T04:53:24;104.60;;;54.33;;
25663;SDS011;13522;50.018;20.014;2022-11-20T04:56:36;111.20;;;58.73;;
25663;SDS011;13522;50.018;20.014;2022-11-20T04:59:49;103.25;;;56.18;;
25663;SDS011;13522;50.018;20.014;2022-11-20T05:03:00;100.50;;;53.93;;
25663;SDS011;13522;50.018;20.014;2022-11-20T05:06:13;96.70;;;53.20;;
25663;SDS011;13522;50.018;20.014;2022-11-20T05:09:27;106.25;;;57.18;;
25663;SDS011;13522;50.018;20.014;2022-11-20T05:12:39;117.78;;;60.35;;
25663;SDS011;13522;50.018;20.014;2022-11-20T05:15:52;113.35;;;56.98;;
25663;SDS011;13522;50.018;20.014;2022-11-20T05:19:13;111.15;;;58.15;;
25663;SDS011;13522;50.018;20.014;2022-11-20T05:22:25;111.85;;;55.48;;
25663;SDS011;13522;50.018;20.014;2022-11-20T05:25:37;112.28;;;54.75;;
25663;SDS011;13522;50.018;20.014;2022-11-20T05:28:49;107.73;;;56.43;;
25663;SDS011;13522;50.018;20.014;2022-11-20T05:32:01;116.58;;;58.00;;
25663;SDS011;13522;50.018;20.014;2022-11-20T05:35:14;122.55;;;59.00;;
25663;SDS011;13522;50.018;20.014;2022-11-20T05:38:26;119.93;;;61.90;;
25663;SDS011;13522;50.018;20.014;2022-11-20T05:41:38;122.08;;;59.03;;
25663;SDS011;13522;50.018;20.014;2022-11-20T05:44:50;121.40;;;59.35;;
25663;SDS011;13522;50.018;20.014;2022-11-20T05:48:02;132.90;;;63.58;;
25663;SDS011;13522;50.018;20.014;2022-11-20T05:51:18;132.10;;;61.45;;
25663;SDS011;13522;50.018;20.014;2022-11-20T05:54:30;119.98;;;57.80;;
25663;SDS011;13522;50.018;20.014;2022-11-20T05:57:42;122.73;;;54.80;;
25663;SDS011;13522;50.018;20.014;2022-11-20T06:00:54;104.95;;;53.03;;
25663;SDS011;13522;50.018;20.014;2022-11-20T06:04:12;98.78;;;49.25;;
25663;SDS011;13522;50.018;20.014;2022-11-20T06:07:24;104.33;;;51.98;;
25663;SDS011;13522;50.018;20.014;2022-11-20T06:10:36;100.80;;;52.90;;
25663;SDS011;13522;50.018;20.014;2022-11-20T06:13:48;119.68;;;55.15;;
25663;SDS011;13522;50.018;20.014;2022-11-20T06:17:00;124.25;;;56.80;;
25663;SDS011;13522;50.018;20.014;2022-11-20T06:20:12;120.85;;;56.33;;
25663;SDS011;13522;50.018;20.014;2022-11-20T06:23:24;145.98;;;61.78;;
25663;SDS011;13522;50.018;20.014;2022-11-20T06:26:38;136.05;;;63.90;;
25663;SDS011;13522;50.018;20.014;2022-11-20T06:29:49;139.33;;;63.03;;
25663;SDS011;13522;50.018;20.014;2022-11-20T06:33:01;136.03;;;60.33;;
25663;SDS011;13522;50.018;20.014;2022-11-20T06:36:14;128.43;;;57.15;;
25663;SDS011;13522;50.018;20.014;2022-11-20T06:39:28;157.45;;;58.98;;
25663;SDS011;13522;50.018;20.014;2022-11-20T06:42:40;118.43;;;56.18;;
25663;SDS011;13522;50.018;20.014;2022-11-20T06:45:53;140.40;;;61.23;;
25663;SDS011;13522;50.018;20.014;2022-11-20T06:49:06;126.58;;;60.70;;
25663;SDS011;13522;50.018;20.014;2022-11-20T06:52:18;148.63;;;62.90;;
25663;SDS011;13522;50.018;20.014;2022-11-20T06:55:30;118.45;;;57.25;;
25663;SDS011;13522;50.018;20.014;2022-11-20T06:58:42;121.73;;;59.10;;
25663;SDS011;13522;50.018;20.014;2022-11-20T07:01:54;144.45;;;63.20;;
25663;SDS011;13522;50.018;20.014;2022-11-20T07:05:07;145.58;;;69.48;;
25663;SDS011;13522;50.018;20.014;2022-11-20T07:08:22;225.55;;;70.60;;
25663;SDS011;13522;50.018;20.014;2022-11-20T07:11:34;136.38;;;62.65;;
25663;SDS011;13522;50.018;20.014;2022-11-20T07:14:46;124.03;;;59.73;;
25663;SDS011;13522;50.018;20.014;2022-11-20T07:17:59;125.53;;;59.13;;
25663;SDS011;13522;50.018;20.014;2022-11-20T07:21:14;111.33;;;55.93;;
25663;SDS011;13522;50.018;20.014;2022-11-20T07:24:28;129.93;;;59.03;;
25663;SDS011;13522;50.018;20.014;2022-11-20T07:27:42;114.25;;;55.75;;
25663;SDS011;13522;50.018;20.014;2022-11-20T07:31:03;131.05;;;58.88;;
25663;SDS011;13522;50.018;20.014;2022-11-20T07:34:19;118.00;;;57.85;;
25663;SDS011;13522;50.018;20.014;2022-11-20T07:37:31;112.05;;;57.10;;
25663;SDS011;13522;50.018;20.014;2022-11-20T07:40:45;121.43;;;59.80;;
25663;SDS011;13522;50.018;20.014;2022-11-20T07:43:59;151.18;;;70.73;;
25663;SDS011;13522;50.018;20.014;2022-11-20T07:47:11;117.30;;;58.88;;
25663;SDS011;13522;50.018;20.014;2022-11-20T07:50:23;113.58;;;58.55;;
25663;SDS011;13522;50.018;20.014;2022-11-20T07:53:36;112.55;;;54.48;;
25663;SDS011;13522;50.018;20.014;2022-11-20T07:56:47;119.18;;;57.98;;
25663;SDS011;13522;50.018;20.014;2022-11-20T08:00:00;116.63;;;60.25;;
25663;SDS011;13522;50.018;20.014;2022-11-20T08:03:17;112.48;;;57.78;;
25663;SDS011;13522;50.018;20.014;2022-11-20T08:06:29;120.10;;;59.95;;
25663;SDS011;13522;50.018;20.014;2022-11-20T08:09:41;107.20;;;54.58;;
25663;SDS011;13522;50.018;20.014;2022-11-20T08:12:52;121.00;;;55.40;;
25663;SDS011;13522;50.018;20.014;2022-11-20T08:16:19;125.98;;;60.23;;
25663;SDS011;13522;50.018;20.014;2022-11-20T08:19:32;110.23;;;56.63;;
25663;SDS011;13522;50.018;20.014;2022-11-20T08:22:44;99.15;;;53.65;;
25663;SDS011;13522;50.018;20.014;2022-11-20T08:25:56;96.25;;;50.23;;
25663;SDS011;13522;50.018;20.014;2022-11-20T08:29:08;97.40;;;52.80;;
25663;SDS011;13522;50.018;20.014;2022-11-20T08:32:21;108.98;;;54.68;;
25663;SDS011;13522;50.018;20.014;2022-11-20T08:35:34;108.88;;;55.20;;
25663;SDS011;13522;50.018;20.014;2022-11-20T08:38:48;112.83;;;57.20;;
25663;SDS011;13522;50.018;20.014;2022-11-20T08:42:07;109.20;;;55.50;;
25663;SDS011;13522;50.018;20.014;2022-11-20T08:45:20;111.95;;;56.93;;
25663;SDS011;13522;50.018;20.014;2022-11-20T08:48:34;114.10;;;56.38;;
25663;SDS011;13522;50.018;20.014;2022-11-20T08:51:50;114.65;;;58.03;;
25663;SDS011;13522;50.018;20.014;2022-11-20T08:55:05;111.83;;;58.53;;
25663;SDS011;13522;50.018;20.014;2022-11-20T08:58:18;119.68;;;58.68;;
25663;SDS011;13522;50.018;20.014;2022-11-20T09:01:31;116.33;;;60.35;;
25663;SDS011;13522;50.018;20.014;2022-11-20T09:04:46;112.78;;;58.18;;
25663;SDS011;13522;50.018;20.014;2022-11-20T09:08:00;147.78;;;73.80;;
25663;SDS011;13522;50.018;20.014;2022-11-20T09:11:13;121.73;;;61.93;;
25663;SDS011;13522;50.018;20.014;2022-11-20T09:14:28;119.80;;;60.23;;
25663;SDS011;13522;50.018;20.014;2022-11-20T09:17:42;121.65;;;61.00;;
25663;SDS011;13522;50.018;20.014;2022-11-20T09:21:00;119.73;;;59.90;;
25663;SDS011;13522;50.018;20.014;2022-11-20T09:24:15;127.63;;;60.10;;
25663;SDS011;13522;50.018;20.014;2022-11-20T09:27:27;118.03;;;59.13;;
25663;SDS011;13522;50.018;20.014;2022-11-20T09:30:39;111.60;;;59.40;;
25663;SDS011;13522;50.018;20.014;2022-11-20T09:33:52;114.33;;;59.00;;
25663;SDS011;13522;50.018;20.014;2022-11-20T09:37:04;111.98;;;60.35;;
25663;SDS011;13522;50.018;20.014;2022-11-20T09:40:19;115.33;;;61.55;;
25663;SDS011;13522;50.018;20.014;2022-11-20T09:43:37;117.33;;;60.18;;
25663;SDS011;13522;50.018;20.014;2022-11-20T09:46:58;124.28;;;63.65;;
25663;SDS011;13522;50.018;20.014;2022-11-20T09:50:23;115.93;;;60.20;;
25663;SDS011;13522;50.018;20.014;2022-11-20T09:53:42;114.40;;;59.68;;
25663;SDS011;13522;50.018;20.014;2022-11-20T09:57:05;115.93;;;59.18;;
25663;SDS011;13522;50.018;20.014;2022-11-20T10:00:22;119.00;;;61.95;;
25663;SDS011;13522;50.018;20.014;2022-11-20T10:03:37;112.25;;;60.43;;
25663;SDS011;13522;50.018;20.014;2022-11-20T10:07:00;117.20;;;62.65;;
25663;SDS011;13522;50.018;20.014;2022-11-20T10:10:20;119.60;;;63.10;;
25663;SDS011;13522;50.018;20.014;2022-11-20T10:13:42;122.78;;;62.95;;
25663;SDS011;13522;50.018;20.014;2022-11-20T10:17:01;130.30;;;67.83;;
25663;SDS011;13522;50.018;20.014;2022-11-20T10:20:21;122.73;;;63.18;;
25663;SDS011;13522;50.018;20.014;2022-11-20T10:23:47;118.05;;;63.40;;
25663;SDS011;13522;50.018;20.014;2022-11-20T10:27:26;112.30;;;59.48;;
25663;SDS011;13522;50.018;20.014;2022-11-20T10:31:02;114.48;;;60.75;;
25663;SDS011;13522;50.018;20.014;2022-11-20T10:34:21;114.13;;;58.35;;
25663;SDS011;13522;50.018;20.014;2022-11-20T10:37:37;121.50;;;63.30;;
25663;SDS011;13522;50.018;20.014;2022-11-20T10:40:56;113.98;;;60.30;;
25663;SDS011;13522;50.018;20.014;2022-11-20T10:44:22;113.18;;;60.33;;
25663;SDS011;13522;50.018;20.014;2022-11-20T10:47:54;119.53;;;62.30;;
25663;SDS011;13522;50.018;20.014;2022-11-20T10:51:13;115.25;;;62.28;;
25663;SDS011;13522;50.018;20.014;2022-11-20T10:54:34;119.88;;;63.70;;
25663;SDS011;13522;50.018;20.014;2022-11-20T10:57:53;119.98;;;60.65;;
25663;SDS011;13522;50.018;20.014;2022-11-20T11:01:14;113.50;;;62.35;;
25663;SDS011;13522;50.018;20.014;2022-11-20T11:04:32;111.73;;;63.85;;
25663;SDS011;13522;50.018;20.014;2022-11-20T11:07:49;117.60;;;63.63;;
25663;SDS011;13522;50.018;20.014;2022-11-20T11:11:07;114.08;;;62.53;;
25663;SDS011;13522;50.018;20.014;2022-11-20T11:14:48;109.95;;;61.13;;
25663;SDS011;13522;50.018;20.014;2022-11-20T11:18:02;119.95;;;64.00;;
25663;SDS011;13522;50.018;20.014;2022-11-20T11:21:22;121.08;;;66.45;;
25663;SDS011;13522;50.018;20.014;2022-11-20T11:24:36;122.60;;;65.75;;
25663;SDS011;13522;50.018;20.014;2022-11-20T11:27:52;124.43;;;66.70;;
25663;SDS011;13522;50.018;20.014;2022-11-20T11:31:07;128.63;;;67.08;;
25663;SDS011;13522;50.018;20.014;2022-11-20T11:34:19;111.95;;;59.20;;
25663;SDS011;13522;50.018;20.014;2022-11-20T11:37:39;115.48;;;61.73;;
25663;SDS011;13522;50.018;20.014;2022-11-20T11:40:54;127.15;;;66.53;;
25663;SDS011;13522;50.018;20.014;2022-11-20T11:44:14;119.78;;;63.43;;
25663;SDS011;13522;50.018;20.014;2022-11-20T11:47:47;120.20;;;65.57;;
25663;SDS011;13522;50.018;20.014;2022-11-20T11:51:01;121.73;;;66.13;;
25663;SDS011;13522;50.018;20.014;2022-11-20T11:54:19;102.70;;;53.40;;
25663;SDS011;13522;50.018;20.014;2022-11-20T11:57:37;122.40;;;65.35;;
25663;SDS011;13522;50.018;20.014;2022-11-20T12:00:54;117.40;;;63.75;;
25663;SDS011;13522;50.018;20.014;2022-11-20T12:04:36;115.48;;;62.33;;
25663;SDS011;13522;50.018;20.014;2022-11-20T12:07:51;125.07;;;64.70;;
25663;SDS011;13522;50.018;20.014;2022-11-20T12:11:12;120.10;;;63.50;;
25663;SDS011;13522;50.018;20.014;2022-11-20T12:14:30;122.28;;;66.03;;
25663;SDS011;13522;50.018;20.014;2022-11-20T12:17:45;114.58;;;62.80;;
25663;SDS011;13522;50.018;20.014;2022-11-20T12:21:02;112.90;;;61.83;;
25663;SDS011;13522;50.018;20.014;2022-11-20T12:24:28;123.30;;;64.90;;
25663;SDS011;13522;50.018;20.014;2022-11-20T12:27:54;123.60;;;66.15;;
25663;SDS011;13522;50.018;20.014;2022-11-20T12:31:41;123.23;;;62.60;;
25663;SDS011;13522;50.018;20.014;2022-11-20T12:35:06;121.10;;;64.00;;
25663;SDS011;13522;50.018;20.014;2022-11-20T12:42:15;120.95;;;64.98;;
25663;SDS011;13522;50.018;20.014;2022-11-20T12:45:56;124.65;;;67.05;;
25663;SDS011;13522;50.018;20.014;2022-11-20T12:49:31;126.15;;;67.53;;
25663;SDS011;13522;50.018;20.014;2022-11-20T12:52:47;125.88;;;67.53;;
25663;SDS011;13522;50.018;20.014;2022-11-20T12:56:04;125.07;;;66.37;;
25663;SDS011;13522;50.018;20.014;2022-11-20T12:59:27;134.85;;;69.38;;
25663;SDS011;13522;50.018;20.014;2022-11-20T13:02:52;128.08;;;67.08;;
25663;SDS011;13522;50.018;20.014;2022-11-20T13:06:36;136.83;;;69.53;;
25663;SDS011;13522;50.018;20.014;2022-11-20T13:09:49;119.28;;;64.35;;
25663;SDS011;13522;50.018;20.014;2022-11-20T13:13:03;123.45;;;65.03;;
25663;SDS011;13522;50.018;20.014;2022-11-20T13:16:25;128.70;;;65.85;;
25663;SDS011;13522;50.018;20.014;2022-11-20T13:19:41;125.58;;;66.80;;
25663;SDS011;13522;50.018;20.014;2022-11-20T13:23:01;128.70;;;66.20;;
25663;SDS011;13522;50.018;20.014;2022-11-20T13:26:17;127.03;;;67.30;;
25663;SDS011;13522;50.018;20.014;2022-11-20T13:29:31;118.83;;;64.10;;
25663;SDS011;13522;50.018;20.014;2022-11-20T13:32:52;115.10;;;63.83;;
25663;SDS011;13522;50.018;20.014;2022-11-20T13:36:06;119.35;;;64.30;;
25663;SDS011;13522;50.018;20.014;2022-11-20T13:39:31;121.18;;;67.00;;
25663;SDS011;13522;50.018;20.014;2022-11-20T13:42:45;131.23;;;67.65;;
25663;SDS011;13522;50.018;20.014;2022-11-20T13:46:06;121.25;;;64.58;;
25663;SDS011;13522;50.018;20.014;2022-11-20T13:49:23;121.68;;;65.33;;
25663;SDS011;13522;50.018;20.014;2022-11-20T13:52:42;124.78;;;65.85;;
25663;SDS011;13522;50.018;20.014;2022-11-20T13:56:00;125.05;;;68.00;;
25663;SDS011;13522;50.018;20.014;2022-11-20T13:59:20;127.85;;;68.60;;
25663;SDS011;13522;50.018;20.014;2022-11-20T14:02:52;135.35;;;71.00;;
25663;SDS011;13522;50.018;20.014;2022-11-20T14:06:10;127.90;;;68.45;;
25663;SDS011;13522;50.018;20.014;2022-11-20T14:09:27;122.70;;;67.43;;
25663;SDS011;13522;50.018;20.014;2022-11-20T14:12:40;123.48;;;68.45;;
25663;SDS011;13522;50.018;20.014;2022-11-20T14:15:56;132.80;;;72.03;;
25663;SDS011;13522;50.018;20.014;2022-11-20T14:22:48;123.15;;;66.00;;
25663;SDS011;13522;50.018;20.014;2022-11-20T14:26:01;125.83;;;69.08;;
25663;SDS011;13522;50.018;20.014;2022-11-20T14:29:13;115.70;;;62.83;;
25663;SDS011;13522;50.018;20.014;2022-11-20T14:32:28;126.68;;;70.15;;
25663;SDS011;13522;50.018;20.014;2022-11-20T14:35:43;121.98;;;66.63;;
25663;SDS011;13522;50.018;20.014;2022-11-20T14:42:13;126.98;;;68.95;;
25663;SDS011;13522;50.018;20.014;2022-11-20T14:45:28;122.18;;;64.33;;
25663;SDS011;13522;50.018;20.014;2022-11-20T14:48:40;116.90;;;63.73;;
25663;SDS011;13522;50.018;20.014;2022-11-20T14:51:59;119.67;;;66.43;;
25663;SDS011;13522;50.018;20.014;2022-11-20T14:55:26;135.10;;;70.15;;
25663;SDS011;13522;50.018;20.014;2022-11-20T14:58:40;113.80;;;64.48;;
25663;SDS011;13522;50.018;20.014;2022-11-20T15:01:55;126.55;;;68.53;;
25663;SDS011;13522;50.018;20.014;2022-11-20T15:05:11;129.28;;;71.38;;
25663;SDS011;13522;50.018;20.014;2022-11-20T15:08:24;139.75;;;75.75;;
25663;SDS011;13522;50.018;20.014;2022-11-20T15:11:36;137.53;;;76.98;;
25663;SDS011;13522;50.018;20.014;2022-11-20T15:14:48;134.20;;;71.55;;
25663;SDS011;13522;50.018;20.014;2022-11-20T15:18:00;128.40;;;70.70;;
25663;SDS011;13522;50.018;20.014;2022-11-20T15:21:13;125.68;;;71.05;;
25663;SDS011;13522;50.018;20.014;2022-11-20T15:24:29;134.45;;;71.23;;
25663;SDS011;13522;50.018;20.014;2022-11-20T15:27:41;134.55;;;69.50;;
25663;SDS011;13522;50.018;20.014;2022-11-20T15:30:54;134.88;;;72.83;;
25663;SDS011;13522;50.018;20.014;2022-11-20T15:34:07;137.05;;;72.28;;
25663;SDS011;13522;50.018;20.014;2022-11-20T15:37:21;129.05;;;70.03;;
25663;SDS011;13522;50.018;20.014;2022-11-20T15:40:33;140.83;;;74.25;;
25663;SDS011;13522;50.018;20.014;2022-11-20T15:43:45;140.85;;;73.63;;
25663;SDS011;13522;50.018;20.014;2022-11-20T15:46:57;141.83;;;76.90;;
25663;SDS011;13522;50.018;20.014;2022-11-20T15:50:10;136.03;;;74.63;;
25663;SDS011;13522;50.018;20.014;2022-11-20T15:53:26;131.08;;;72.13;;
25663;SDS011;13522;50.018;20.014;2022-11-20T15:56:38;134.00;;;71.03;;
25663;SDS011;13522;50.018;20.014;2022-11-20T15:59:50;137.55;;;74.78;;
25663;SDS011;13522;50.018;20.014;2022-11-20T16:03:03;143.53;;;76.85;;
25663;SDS011;13522;50.018;20.014;2022-11-20T16:06:16;142.70;;;74.90;;
25663;SDS011;13522;50.018;20.014;2022-11-20T16:09:27;135.60;;;73.05;;
25663;SDS011;13522;50.018;20.014;2022-11-20T16:12:39;138.48;;;75.03;;
25663;SDS011;13522;50.018;20.014;2022-11-20T16:16:06;150.28;;;78.40;;
25663;SDS011;13522;50.018;20.014;2022-11-20T16:19:23;137.40;;;74.45;;
25663;SDS011;13522;50.018;20.014;2022-11-20T16:22:35;137.13;;;72.08;;
25663;SDS011;13522;50.018;20.014;2022-11-20T16:25:47;127.63;;;70.23;;
25663;SDS011;13522;50.018;20.014;2022-11-20T16:28:59;129.63;;;71.20;;
25663;SDS011;13522;50.018;20.014;2022-11-20T16:32:24;142.53;;;76.65;;
25663;SDS011;13522;50.018;20.014;2022-11-20T16:35:47;132.85;;;73.73;;
25663;SDS011;13522;50.018;20.014;2022-11-20T16:39:00;123.35;;;70.55;;
25663;SDS011;13522;50.018;20.014;2022-11-20T16:43:01;132.45;;;72.30;;
25663;SDS011;13522;50.018;20.014;2022-11-20T16:46:19;146.73;;;79.23;;
25663;SDS011;13522;50.018;20.014;2022-11-20T16:50:02;127.63;;;72.70;;
25663;SDS011;13522;50.018;20.014;2022-11-20T16:53:24;146.95;;;78.33;;
25663;SDS011;13522;50.018;20.014;2022-11-20T16:57:04;146.18;;;76.83;;
25663;SDS011;13522;50.018;20.014;2022-11-20T17:00:18;136.58;;;73.20;;
25663;SDS011;13522;50.018;20.014;2022-11-20T17:03:40;135.28;;;74.80;;
25663;SDS011;13522;50.018;20.014;2022-11-20T17:07:58;140.87;;;76.00;;
25663;SDS011;13522;50.018;20.014;2022-11-20T17:11:18;147.88;;;77.63;;
25663;SDS011;13522;50.018;20.014;2022-11-20T17:15:37;143.47;;;75.43;;
25663;SDS011;13522;50.018;20.014;2022-11-20T17:19:01;137.28;;;74.93;;
25663;SDS011;13522;50.018;20.014;2022-11-20T17:22:13;140.05;;;76.05;;
25663;SDS011;13522;50.018;20.014;2022-11-20T17:25:25;139.98;;;75.78;;
25663;SDS011;13522;50.018;20.014;2022-11-20T17:28:39;145.38;;;78.40;;
25663;SDS011;13522;50.018;20.014;2022-11-20T17:31:52;134.60;;;72.83;;
25663;SDS011;13522;50.018;20.014;2022-11-20T17:35:12;134.50;;;73.08;;
25663;SDS011;13522;50.018;20.014;2022-11-20T17:38:52;132.65;;;72.50;;
25663;SDS011;13522;50.018;20.014;2022-11-20T17:42:05;147.20;;;75.85;;
25663;SDS011;13522;50.018;20.014;2022-11-20T17:46:36;136.70;;;74.95;;
25663;SDS011;13522;50.018;20.014;2022-11-20T17:49:55;135.43;;;72.70;;
25663;SDS011;13522;50.018;20.014;2022-11-20T17:53:07;147.55;;;77.33;;
25663;SDS011;13522;50.018;20.014;2022-11-20T17:56:19;144.30;;;83.28;;
25663;SDS011;13522;50.018;20.014;2022-11-20T17:59:46;151.45;;;81.65;;
25663;SDS011;13522;50.018;20.014;2022-11-20T18:02:59;146.98;;;78.95;;
25663;SDS011;13522;50.018;20.014;2022-11-20T18:06:13;136.00;;;75.20;;
25663;SDS011;13522;50.018;20.014;2022-11-20T18:09:42;141.63;;;79.25;;
25663;SDS011;13522;50.018;20.014;2022-11-20T18:12:54;150.83;;;81.60;;
25663;SDS011;13522;50.018;20.014;2022-11-20T18:16:07;155.68;;;87.17;;
25663;SDS011;13522;50.018;20.014;2022-11-20T18:19:31;146.45;;;82.55;;
25663;SDS011;13522;50.018;20.014;2022-11-20T18:22:48;152.98;;;82.23;;
25663;SDS011;13522;50.018;20.014;2022-11-20T18:26:02;153.73;;;81.83;;
25663;SDS011;13522;50.018;20.014;2022-11-20T18:29:16;153.25;;;82.93;;
25663;SDS011;13522;50.018;20.014;2022-11-20T18:32:29;139.33;;;77.90;;
25663;SDS011;13522;50.018;20.014;2022-11-20T18:35:43;147.65;;;79.65;;
25663;SDS011;13522;50.018;20.014;2022-11-20T18:38:56;137.33;;;76.03;;
25663;SDS011;13522;50.018;20.014;2022-11-20T18:42:10;138.28;;;74.28;;
25663;SDS011;13522;50.018;20.014;2022-11-20T18:45:38;147.50;;;79.73;;
25663;SDS011;13522;50.018;20.014;2022-11-20T18:48:50;145.70;;;80.22;;
25663;SDS011;13522;50.018;20.014;2022-11-20T18:52:04;139.83;;;75.85;;